createdAt,value
2018-08-16T00:02:19.489Z,1.90
2018-08-16T00:04:47.684Z,2.10
2018-08-16T00:07:15.803Z,2.07
2018-08-16T00:09:43.876Z,2.37
2018-08-16T00:12:12.047Z,2.10
2018-08-16T00:14:40.144Z,2.10
2018-08-16T00:17:09.057Z,1.93
2018-08-16T00:19:37.212Z,2.10
2018-08-16T00:22:05.480Z,2.10
2018-08-16T00:24:33.638Z,1.90
2018-08-16T00:27:01.766Z,2.07
2018-08-16T00:29:30.079Z,2.30
2018-08-16T00:31:58.229Z,2.00
2018-08-16T00:34:26.319Z,2.07
2018-08-16T00:36:54.371Z,2.10
2018-08-16T00:39:22.430Z,2.07
2018-08-16T00:41:50.456Z,2.33
2018-08-16T00:44:18.539Z,2.27
2018-08-16T00:46:46.663Z,2.23
2018-08-16T00:49:14.767Z,2.27
2018-08-16T00:51:42.913Z,2.17
2018-08-16T00:54:11.034Z,2.23
2018-08-16T00:56:39.084Z,2.17
2018-08-16T00:59:07.219Z,2.07
2018-08-16T01:01:35.332Z,2.40
2018-08-16T01:04:03.523Z,1.97
2018-08-16T01:06:31.580Z,2.13
2018-08-16T01:08:59.652Z,2.20
2018-08-16T01:11:27.733Z,2.50
2018-08-16T01:13:55.835Z,2.40
2018-08-16T01:16:23.941Z,2.27
2018-08-16T01:18:52.132Z,2.50
2018-08-16T01:21:20.275Z,2.37
2018-08-16T01:23:48.441Z,2.27
2018-08-16T01:26:16.542Z,2.40
2018-08-16T01:28:44.750Z,2.00
2018-08-16T01:31:12.888Z,2.20
2018-08-16T01:33:41.073Z,2.20
2018-08-16T01:36:09.212Z,2.17
2018-08-16T01:38:37.373Z,2.13
2018-08-16T01:41:05.497Z,2.70
2018-08-16T01:43:33.605Z,2.23
2018-08-16T01:46:01.683Z,2.23
2018-08-16T01:48:30.121Z,2.07
2018-08-16T01:50:58.259Z,2.80
2018-08-16T01:53:26.329Z,2.30
2018-08-16T01:55:54.448Z,2.20
2018-08-16T01:58:22.612Z,2.50
2018-08-16T02:00:50.684Z,2.13
2018-08-16T02:03:18.835Z,2.50
2018-08-16T02:05:46.988Z,2.73
2018-08-16T02:08:15.164Z,2.60
2018-08-16T02:10:43.218Z,2.37
2018-08-16T02:13:11.374Z,2.57
2018-08-16T02:15:39.486Z,2.50
2018-08-16T02:18:08.115Z,2.50
2018-08-16T02:20:36.286Z,2.33
2018-08-16T02:23:04.411Z,2.50
2018-08-16T02:25:32.596Z,2.60
2018-08-16T02:28:00.644Z,2.37
2018-08-16T02:30:28.747Z,2.53
2018-08-16T02:32:56.910Z,2.27
2018-08-16T02:35:25.001Z,2.47
2018-08-16T02:37:53.126Z,2.70
2018-08-16T02:40:21.173Z,2.80
2018-08-16T02:42:49.341Z,2.70
2018-08-16T02:45:17.461Z,2.37
2018-08-16T02:47:45.529Z,2.27
2018-08-16T02:50:13.584Z,2.47
2018-08-16T02:52:41.625Z,2.60
2018-08-16T02:55:09.749Z,2.57
2018-08-16T02:57:37.857Z,2.73
2018-08-16T03:00:07.312Z,2.50
2018-08-16T03:02:35.464Z,3.03
2018-08-16T03:05:04.246Z,2.37
2018-08-16T03:07:32.325Z,1.97
2018-08-16T03:10:00.381Z,2.93
2018-08-16T03:12:28.438Z,2.37
2018-08-16T03:14:56.540Z,2.27
2018-08-16T03:17:27.500Z,2.40
2018-08-16T03:19:55.595Z,2.50
2018-08-16T03:22:23.721Z,2.20
2018-08-16T03:24:51.799Z,2.43
2018-08-16T03:27:19.944Z,2.50
2018-08-16T03:29:48.031Z,2.50
2018-08-16T03:32:16.147Z,2.83
2018-08-16T03:34:44.235Z,2.50
2018-08-16T03:37:12.313Z,2.60
2018-08-16T03:39:40.412Z,2.57
2018-08-16T03:42:08.512Z,2.90
2018-08-16T03:44:36.616Z,2.60
2018-08-16T03:47:04.744Z,2.90
2018-08-16T03:49:32.805Z,3.07
2018-08-16T03:52:00.936Z,2.60
2018-08-16T03:54:29.075Z,2.87
2018-08-16T03:56:57.221Z,2.77
2018-08-16T03:59:25.288Z,4.47
2018-08-16T04:01:53.430Z,3.30
2018-08-16T04:04:21.502Z,3.60
2018-08-16T04:06:49.603Z,3.30
2018-08-16T04:09:17.664Z,2.70
2018-08-16T04:11:45.748Z,2.53
2018-08-16T04:14:13.837Z,3.20
2018-08-16T04:16:41.961Z,3.43
2018-08-16T04:19:10.111Z,3.30
2018-08-16T04:21:38.163Z,3.50
2018-08-16T04:24:06.293Z,2.13
2018-08-16T04:26:34.363Z,2.70
2018-08-16T04:29:02.499Z,2.90
2018-08-16T04:31:30.690Z,2.80
2018-08-16T04:33:58.796Z,2.90
2018-08-16T04:36:27.031Z,3.03
2018-08-16T04:38:55.181Z,3.13
2018-08-16T04:41:23.241Z,3.10
2018-08-16T04:43:51.336Z,3.23
2018-08-16T04:46:19.415Z,3.00
2018-08-16T04:48:47.468Z,2.83
2018-08-16T04:51:15.549Z,2.73
2018-08-16T04:53:43.606Z,2.70
2018-08-16T04:56:11.669Z,3.37
2018-08-16T04:58:39.780Z,3.27
2018-08-16T05:01:07.866Z,3.10
2018-08-16T05:03:35.993Z,3.20
2018-08-16T05:06:04.186Z,3.60
2018-08-16T05:08:32.240Z,3.40
2018-08-16T05:11:00.449Z,2.80
2018-08-16T05:13:28.469Z,3.87
2018-08-16T05:15:56.612Z,3.40
2018-08-16T05:18:24.765Z,4.03
2018-08-16T05:20:52.904Z,3.70
2018-08-16T05:23:20.996Z,3.80
2018-08-16T05:25:49.049Z,3.90
2018-08-16T05:28:17.208Z,3.57
2018-08-16T05:30:45.744Z,3.90
2018-08-16T05:33:13.831Z,4.10
2018-08-16T05:35:41.999Z,3.63
2018-08-16T05:38:10.139Z,3.37
2018-08-16T05:40:38.227Z,3.07
2018-08-16T05:43:06.359Z,3.40
2018-08-16T05:45:34.452Z,3.53
2018-08-16T05:48:02.692Z,3.37
2018-08-16T05:50:30.798Z,3.50
2018-08-16T05:52:58.865Z,3.43
2018-08-16T05:55:26.993Z,2.97
2018-08-16T05:57:55.048Z,3.50
2018-08-16T06:00:23.241Z,2.93
2018-08-16T06:02:51.432Z,3.77
2018-08-16T06:05:19.522Z,3.27
2018-08-16T06:07:47.616Z,3.37
2018-08-16T06:10:15.703Z,2.90
2018-08-16T06:12:43.801Z,3.47
2018-08-16T06:15:12.050Z,3.10
2018-08-16T06:17:40.179Z,3.40
2018-08-16T06:20:09.888Z,3.43
2018-08-16T06:22:38.165Z,2.93
2018-08-16T06:25:08.187Z,3.30
2018-08-16T06:27:36.282Z,2.90
2018-08-16T06:30:07.592Z,3.50
2018-08-16T06:32:35.731Z,2.83
2018-08-16T06:35:04.507Z,3.87
2018-08-16T06:37:32.613Z,2.67
2018-08-16T06:40:00.920Z,3.60
2018-08-16T06:42:29.041Z,3.07
2018-08-16T06:44:57.142Z,2.70
2018-08-16T06:47:25.375Z,3.07
2018-08-16T06:49:53.510Z,3.27
2018-08-16T06:52:21.631Z,2.90
2018-08-16T06:54:49.717Z,2.90
2018-08-16T06:57:17.909Z,3.07
2018-08-16T06:59:46.160Z,3.03
2018-08-16T07:02:14.272Z,2.93
2018-08-16T07:04:42.427Z,3.20
2018-08-16T07:07:10.630Z,2.90
2018-08-16T07:09:39.529Z,2.80
2018-08-16T07:12:12.574Z,3.40
2018-08-16T07:14:40.899Z,2.70
2018-08-16T07:17:09.676Z,2.73
2018-08-16T07:19:38.178Z,2.90
2018-08-16T07:22:06.498Z,2.43
2018-08-16T07:24:34.917Z,2.67
2018-08-16T07:27:03.215Z,3.03
2018-08-16T07:29:31.475Z,2.90
2018-08-16T07:31:59.668Z,2.90
2018-08-16T07:34:27.937Z,2.30
2018-08-16T07:36:56.032Z,2.87
2018-08-16T07:39:24.360Z,2.23
2018-08-16T07:41:52.525Z,2.53
2018-08-16T07:44:20.765Z,3.27
2018-08-16T07:46:48.990Z,2.90
2018-08-16T07:49:17.164Z,2.23
2018-08-16T07:51:45.522Z,2.43
2018-08-16T07:54:13.551Z,2.37
2018-08-16T07:56:41.813Z,2.07
2018-08-16T07:59:09.958Z,2.30
2018-08-16T08:01:38.146Z,2.33
2018-08-16T08:04:06.659Z,2.37
2018-08-16T08:06:35.833Z,2.75
2018-08-16T08:09:06.160Z,2.52
2018-08-16T08:11:34.395Z,2.17
2018-08-16T08:14:02.697Z,2.27
2018-08-16T08:16:30.837Z,1.77
2018-08-16T08:18:59.153Z,2.15
2018-08-16T08:21:27.839Z,1.80
2018-08-16T08:23:56.413Z,1.90
2018-08-16T08:26:24.999Z,2.50
2018-08-16T08:28:53.413Z,2.55
2018-08-16T08:31:23.260Z,2.15
2018-08-16T08:33:51.809Z,2.00
2018-08-16T08:36:30.939Z,2.37
2018-08-16T08:39:00.012Z,2.35
2018-08-16T08:41:28.564Z,2.35
2018-08-16T08:44:10.653Z,2.10
2018-08-16T08:46:39.044Z,1.90
2018-08-16T08:49:07.544Z,2.20
2018-08-16T08:51:36.878Z,2.08
2018-08-16T08:56:18.334Z,2.20
2018-08-16T08:58:50.335Z,1.70
2018-08-16T09:01:18.547Z,2.40
2018-08-16T09:03:46.935Z,2.10
2018-08-16T09:06:16.408Z,1.87
2018-08-16T09:08:44.921Z,1.95
2018-08-16T09:11:24.179Z,2.08
2018-08-16T09:14:04.578Z,1.90
2018-08-16T09:16:37.876Z,2.00
2018-08-16T09:19:08.808Z,1.80
2018-08-16T09:21:38.813Z,2.22
2018-08-16T09:24:07.800Z,1.80
2018-08-16T09:26:42.062Z,1.85
2018-08-16T09:30:24.590Z,2.00
2018-08-16T09:33:03.697Z,1.70
2018-08-16T09:35:31.917Z,2.17
2018-08-16T09:38:00.114Z,2.10
2018-08-16T09:40:28.385Z,1.90
2018-08-16T09:42:56.647Z,1.87
2018-08-16T09:45:35.802Z,1.92
2018-08-16T09:48:14.985Z,1.90
2018-08-16T09:50:43.201Z,1.95
2018-08-16T09:53:11.569Z,1.77
2018-08-16T09:55:39.998Z,2.10
2018-08-16T09:58:08.723Z,1.80
2018-08-16T10:00:42.848Z,1.90
2018-08-16T10:03:14.504Z,1.57
2018-08-16T10:05:45.661Z,1.80
2018-08-16T10:08:16.718Z,1.30
2018-08-16T10:10:50.329Z,1.50
2018-08-16T10:13:20.300Z,1.70
2018-08-16T10:15:50.372Z,1.50
2018-08-16T10:18:19.087Z,1.60
2018-08-16T10:20:48.480Z,1.47
2018-08-16T10:23:18.463Z,1.52
2018-08-16T10:25:46.923Z,1.57
2018-08-16T10:28:15.458Z,1.40
2018-08-16T10:30:45.161Z,1.60
2018-08-16T10:33:14.950Z,1.57
2018-08-16T10:35:45.116Z,1.40
2018-08-16T10:38:14.548Z,1.57
2018-08-16T10:40:42.916Z,1.60
2018-08-16T10:43:11.546Z,2.05
2018-08-16T10:45:40.589Z,1.90
2018-08-16T10:48:14.660Z,1.50
2018-08-16T10:50:43.116Z,1.72
2018-08-16T10:53:11.476Z,1.90
2018-08-16T10:55:39.787Z,1.50
2018-08-16T10:58:07.976Z,1.77
2018-08-16T11:00:36.309Z,1.72
2018-08-16T11:03:04.622Z,1.60
2018-08-16T11:05:34.021Z,2.02
2018-08-16T11:08:02.331Z,1.90
2018-08-16T11:10:30.582Z,2.15
2018-08-16T11:12:58.840Z,1.98
2018-08-16T11:15:27.188Z,1.90
2018-08-16T11:17:55.597Z,1.82
2018-08-16T11:20:23.986Z,2.08
2018-08-16T11:22:52.594Z,2.00
2018-08-16T11:25:21.908Z,1.67
2018-08-16T11:27:52.176Z,2.20
2018-08-16T11:30:21.618Z,1.75
2018-08-16T11:32:51.668Z,1.87
2018-08-16T11:35:20.336Z,1.90
2018-08-16T11:37:50.470Z,2.00
2018-08-16T11:40:21.695Z,1.72
2018-08-16T11:42:54.985Z,1.77
2018-08-16T11:45:24.283Z,2.20
2018-08-16T11:47:53.935Z,2.02
2018-08-16T11:50:22.769Z,2.15
2018-08-16T11:52:51.563Z,1.65
2018-08-16T11:55:23.687Z,1.90
2018-08-16T11:58:13.342Z,1.90
2018-08-16T12:00:48.551Z,2.02
2018-08-16T12:03:18.030Z,1.75
2018-08-16T12:05:48.042Z,1.50
2018-08-16T12:08:20.040Z,1.80
2018-08-16T12:10:50.725Z,1.75
2018-08-16T12:13:21.679Z,1.70
2018-08-16T12:15:52.433Z,1.82
2018-08-16T12:18:21.847Z,1.90
2018-08-16T12:20:50.675Z,2.08
2018-08-16T12:23:19.307Z,2.00
2018-08-16T12:25:47.688Z,1.90
2018-08-16T12:28:16.038Z,2.00
2018-08-16T12:30:44.530Z,2.00
2018-08-16T12:33:13.025Z,1.85
2018-08-16T12:35:41.354Z,2.10
2018-08-16T12:38:09.629Z,2.05
2018-08-16T12:40:39.221Z,1.67
2018-08-16T12:43:07.678Z,1.65
2018-08-16T12:45:36.090Z,2.00
2018-08-16T12:48:04.566Z,1.80
2018-08-16T12:50:33.004Z,2.22
2018-08-16T12:53:01.411Z,2.05
2018-08-16T12:55:29.864Z,1.90
2018-08-16T12:57:58.276Z,1.80
2018-08-16T13:00:27.852Z,1.90
2018-08-16T13:02:56.611Z,1.82
2018-08-16T13:05:26.332Z,1.80
2018-08-16T13:07:55.074Z,1.70
2018-08-16T13:10:23.545Z,2.15
2018-08-16T13:12:52.144Z,1.77
2018-08-16T13:15:20.793Z,1.98
2018-08-16T13:17:49.412Z,1.72
2018-08-16T13:20:19.492Z,2.00
2018-08-16T13:22:49.611Z,2.10
2018-08-16T13:25:20.760Z,1.87
2018-08-16T13:27:50.954Z,2.40
2018-08-16T13:30:31.591Z,2.08
2018-08-16T13:33:07.301Z,1.75
2018-08-16T13:35:53.870Z,1.92
2018-08-16T13:38:36.920Z,2.22
2018-08-16T13:44:12.912Z,1.70
2018-08-16T13:46:54.930Z,1.95
2018-08-16T15:44:14.293Z,1.60
2018-08-16T15:47:06.996Z,1.30
2018-08-16T15:49:38.405Z,1.60
2018-08-16T15:55:17.065Z,1.30
2018-08-16T16:00:58.475Z,1.60
2018-08-16T16:03:38.753Z,1.57
2018-08-16T16:06:10.158Z,1.40
2018-08-16T16:08:43.851Z,1.47
2018-08-16T16:11:18.224Z,1.70
2018-08-16T16:20:05.841Z,1.43
2018-08-16T16:22:41.249Z,1.70
2018-08-16T16:25:14.643Z,1.67
2018-08-16T16:27:43.936Z,1.60
2018-08-16T16:30:13.236Z,1.67
2018-08-16T16:32:49.705Z,1.40
2018-08-16T16:35:24.844Z,1.80
2018-08-16T16:37:55.683Z,1.40
2018-08-16T16:40:28.666Z,1.70
2018-08-16T16:42:57.704Z,1.77
2018-08-16T16:45:29.317Z,1.87
2018-08-16T16:47:59.570Z,2.03
2018-08-16T16:50:29.358Z,1.97
2018-08-16T16:53:01.576Z,2.00
2018-08-16T17:04:12.053Z,1.90
2018-08-16T17:06:55.429Z,2.10
2018-08-16T17:54:01.611Z,1.83
2018-08-16T17:56:36.441Z,2.10
2018-08-16T17:59:10.632Z,2.17
2018-08-16T18:01:46.132Z,2.30
2018-08-16T18:04:17.838Z,2.17
2018-08-16T18:06:48.787Z,1.90
2018-08-16T18:09:23.205Z,2.03
2018-08-16T18:11:56.747Z,2.10
2018-08-16T18:14:37.473Z,3.10
2018-08-16T18:17:13.571Z,3.30
2018-08-16T18:22:37.006Z,2.70
2018-08-16T18:25:14.222Z,2.77
2018-08-16T18:27:49.050Z,2.97
2018-08-16T18:30:21.592Z,2.23
2018-08-16T18:32:54.419Z,2.47
2018-08-16T18:35:29.189Z,2.27
2018-08-16T18:38:02.077Z,2.37
2018-08-16T18:40:36.810Z,2.90
2018-08-16T18:43:09.295Z,2.83
2018-08-16T18:45:45.829Z,2.73
2018-08-16T18:48:22.634Z,2.03
2018-08-16T18:50:57.767Z,2.13
2018-08-16T18:53:42.156Z,1.63
2018-08-16T18:56:16.029Z,1.90
2018-08-16T18:58:56.090Z,2.13
2018-08-16T19:01:33.173Z,2.03
2018-08-16T19:04:09.114Z,1.80
2018-08-16T19:06:43.175Z,2.03
2018-08-16T19:09:17.983Z,1.80
2018-08-16T19:11:57.302Z,2.50
2018-08-16T19:14:32.150Z,2.70
2018-08-16T19:17:08.096Z,2.13
2018-08-16T19:19:45.935Z,1.80
2018-08-16T19:22:22.278Z,2.23
2018-08-16T19:25:06.712Z,2.50
2018-08-16T19:30:45.993Z,1.90
2018-08-16T19:33:29.074Z,2.07
2018-08-16T19:36:04.165Z,1.80
2018-08-16T19:38:42.837Z,1.90
2018-08-16T19:41:28.124Z,1.90
2018-08-16T19:44:15.373Z,1.93
2018-08-16T19:46:53.060Z,2.10
2018-08-16T19:50:10.068Z,1.90
2018-08-16T19:52:54.866Z,2.00
2018-08-16T19:55:35.600Z,1.80
2018-08-16T19:58:41.528Z,2.10
2018-08-16T20:15:15.238Z,2.17
2018-08-16T20:21:37.190Z,2.33
2018-08-16T20:25:39.875Z,2.37
2018-08-16T20:46:18.849Z,2.10
2018-08-16T21:06:36.172Z,2.53
2018-08-16T21:09:06.261Z,2.17
2018-08-16T21:11:34.432Z,2.50
2018-08-16T21:14:02.538Z,2.13
2018-08-16T21:16:30.717Z,2.20
2018-08-16T21:18:58.888Z,2.83
2018-08-16T21:21:27.278Z,2.17
2018-08-16T21:23:55.494Z,2.33
2018-08-16T21:26:23.709Z,2.13
2018-08-16T21:28:51.825Z,2.27
2018-08-16T21:31:19.970Z,2.30
2018-08-16T21:33:48.146Z,2.20
2018-08-16T21:36:16.281Z,2.63
2018-08-16T21:38:44.459Z,2.60
2018-08-16T21:41:12.999Z,2.70
2018-08-16T21:43:41.175Z,2.77
2018-08-16T21:46:09.265Z,2.50
2018-08-16T21:48:37.375Z,2.00
2018-08-16T21:51:05.527Z,2.60
2018-08-16T21:53:34.182Z,2.03
2018-08-16T21:56:02.388Z,2.37
2018-08-16T21:58:30.469Z,2.90
2018-08-16T22:01:02.141Z,2.90
2018-08-16T22:03:30.252Z,2.63
2018-08-16T22:06:09.234Z,2.43
2018-08-16T22:08:43.018Z,2.43
2018-08-16T22:11:11.403Z,2.67
2018-08-16T22:13:39.698Z,2.47
2018-08-16T22:16:08.028Z,2.70
2018-08-16T22:18:36.669Z,2.30
2018-08-16T22:21:04.954Z,2.67
2018-08-16T22:23:33.167Z,2.13
2018-08-16T22:26:01.793Z,2.67
2018-08-16T22:28:30.124Z,2.80
2018-08-16T22:30:58.997Z,2.77
2018-08-16T22:33:27.168Z,2.50
2018-08-16T22:35:55.417Z,2.80
2018-08-16T22:38:23.547Z,2.90
2018-08-16T22:40:51.724Z,2.80
2018-08-16T22:43:19.833Z,2.77
2018-08-16T22:45:47.966Z,3.00
2018-08-16T22:48:16.092Z,3.10
2018-08-16T22:50:44.318Z,3.40
2018-08-16T22:53:13.529Z,3.00
2018-08-16T22:55:41.833Z,3.50
2018-08-16T22:58:09.975Z,3.80
2018-08-16T23:00:38.132Z,3.97
2018-08-16T23:03:06.321Z,3.40
2018-08-16T23:05:34.383Z,4.00
2018-08-16T23:08:02.555Z,3.80
2018-08-16T23:10:30.701Z,3.30
2018-08-16T23:12:58.916Z,3.43
2018-08-16T23:15:27.110Z,3.30
2018-08-16T23:17:55.208Z,3.60
2018-08-16T23:20:23.300Z,3.20
2018-08-16T23:22:51.450Z,2.63
2018-08-16T23:25:19.563Z,3.27
2018-08-16T23:27:47.646Z,3.20
2018-08-16T23:30:16.240Z,3.20
2018-08-16T23:32:44.381Z,3.03
2018-08-16T23:35:12.511Z,2.73
2018-08-16T23:37:40.916Z,3.03
2018-08-16T23:40:11.782Z,2.90
2018-08-16T23:42:40.125Z,2.73
2018-08-16T23:45:09.133Z,2.80
2018-08-16T23:47:37.281Z,2.70
2018-08-16T23:50:07.435Z,2.90
2018-08-16T23:52:35.547Z,2.60
2018-08-16T23:55:04.124Z,2.40
2018-08-16T23:57:32.198Z,2.90
